createdAt,value
2022-09-30T00:02:32.254Z,5.1
2022-09-30T00:06:32.080Z,5
2022-09-30T00:08:31.977Z,5.1
2022-09-30T00:10:35.409Z,5.1
2022-09-30T00:12:35.339Z,5.1
2022-09-30T00:14:35.218Z,5
2022-09-30T00:16:35.179Z,5
2022-09-30T00:18:35.039Z,5.1
2022-09-30T00:20:34.936Z,5.1
2022-09-30T00:22:34.892Z,5.1
2022-09-30T00:24:38.295Z,5.1
2022-09-30T00:26:38.211Z,5.1
2022-09-30T00:28:38.148Z,5.2
2022-09-30T00:29:39.814Z,5.2
2022-09-30T00:31:39.859Z,5.1
2022-09-30T00:33:39.664Z,5.1
2022-09-30T00:37:42.993Z,5.1
2022-09-30T00:39:42.933Z,5.1
2022-09-30T00:41:44.441Z,5
2022-09-30T00:43:44.312Z,5
2022-09-30T00:45:44.187Z,4.9
2022-09-30T00:47:44.120Z,4.8
2022-09-30T00:49:43.998Z,4.9
2022-09-30T00:51:47.408Z,4.8
2022-09-30T00:53:47.327Z,4.8
2022-09-30T00:55:47.247Z,4.7
2022-09-30T00:57:47.182Z,4.6
2022-09-30T00:59:47.076Z,4.8
2022-09-30T01:01:47.068Z,4.7
2022-09-30T01:03:46.938Z,4.7
2022-09-30T01:05:50.355Z,4.8
2022-09-30T01:07:50.267Z,4.7
2022-09-30T01:09:50.260Z,4.7
2022-09-30T01:11:50.113Z,4.6
2022-09-30T01:13:50.026Z,4.6
2022-09-30T01:15:50.002Z,4.6
2022-09-30T01:17:49.847Z,4.6
2022-09-30T01:19:53.278Z,4.6
2022-09-30T01:21:53.245Z,4.7
2022-09-30T01:23:53.133Z,4.6
2022-09-30T01:26:15.400Z,4.6
2022-09-30T01:28:15.293Z,4.6
2022-09-30T01:30:15.205Z,4.5
2022-09-30T01:38:18.376Z,4.4
2022-09-30T01:44:18.169Z,4.3
2022-09-30T01:46:21.633Z,4.3
2022-09-30T01:48:21.480Z,4.3
2022-09-30T01:50:21.398Z,4.3
2022-09-30T01:52:21.310Z,4.2
2022-09-30T01:54:21.251Z,4.2
2022-09-30T01:56:21.165Z,4.3
2022-09-30T01:58:21.092Z,4.2
2022-09-30T02:00:24.666Z,4.2
2022-09-30T02:02:24.506Z,4.1
2022-09-30T02:04:24.356Z,4.1
2022-09-30T02:06:24.295Z,4.1
2022-09-30T02:08:24.207Z,3.9
2022-09-30T02:10:24.115Z,4
2022-09-30T02:12:24.040Z,4.1
2022-09-30T02:14:27.456Z,4
2022-09-30T02:16:27.489Z,4.1
2022-09-30T02:18:27.315Z,4.1
2022-09-30T02:19:29.022Z,4
2022-09-30T02:21:29.073Z,4
2022-09-30T02:23:28.885Z,4.1
2022-09-30T02:25:28.815Z,4
2022-09-30T02:27:32.212Z,4.1
2022-09-30T02:29:32.142Z,4.1
2022-09-30T02:31:32.277Z,4.1
2022-09-30T02:33:32.024Z,4.1
2022-09-30T02:35:31.928Z,4
2022-09-30T02:37:31.814Z,4
2022-09-30T02:39:31.758Z,4.2
2022-09-30T02:41:35.198Z,4.3
2022-09-30T02:43:35.114Z,4.3
2022-09-30T02:49:34.889Z,4.3
2022-09-30T02:51:34.803Z,4.2
2022-09-30T02:53:34.715Z,4.2
2022-09-30T02:55:38.146Z,4.1
2022-09-30T02:57:38.066Z,4.2
2022-09-30T02:59:38.057Z,4
2022-09-30T03:01:37.976Z,4
2022-09-30T03:03:37.842Z,4
2022-09-30T03:05:37.768Z,4
2022-09-30T03:07:37.716Z,3.9
2022-09-30T03:09:41.148Z,3.9
2022-09-30T03:11:41.061Z,4
2022-09-30T03:13:40.989Z,4
2022-09-30T03:14:42.702Z,3.9
2022-09-30T03:16:42.671Z,3.8
2022-09-30T03:18:42.530Z,3.8
2022-09-30T03:20:42.473Z,3.9
2022-09-30T03:22:45.875Z,3.8
2022-09-30T03:28:45.681Z,3.8
2022-09-30T03:34:45.458Z,3.9
2022-09-30T03:36:48.866Z,4
2022-09-30T03:38:48.772Z,4
2022-09-30T03:42:48.637Z,4.1
2022-09-30T03:44:48.573Z,4.2
2022-09-30T03:46:48.596Z,4.1
2022-09-30T03:48:48.453Z,4.1
2022-09-30T03:50:51.858Z,4.1
2022-09-30T03:52:51.796Z,4
2022-09-30T03:54:51.714Z,3.9
2022-09-30T03:56:51.628Z,3.9
2022-09-30T03:58:51.735Z,4
2022-09-30T04:00:51.601Z,3.9
2022-09-30T04:02:55.825Z,4.1
2022-09-30T04:04:54.830Z,3.9
2022-09-30T04:06:54.792Z,3.9
2022-09-30T04:08:54.713Z,3.8
2022-09-30T04:09:56.392Z,3.9
2022-09-30T04:11:56.332Z,3.9
2022-09-30T04:19:59.564Z,3.9
2022-09-30T04:21:59.490Z,3.8
2022-09-30T04:23:59.419Z,3.9
2022-09-30T04:25:59.341Z,3.8
2022-09-30T04:27:59.264Z,3.9
2022-09-30T04:29:59.185Z,3.8
2022-09-30T04:32:02.598Z,3.9
2022-09-30T04:34:02.547Z,3.8
2022-09-30T04:36:02.488Z,3.9
2022-09-30T04:38:02.414Z,3.9
2022-09-30T04:42:02.273Z,3.8
2022-09-30T04:44:02.175Z,3.7
2022-09-30T04:46:05.657Z,3.8
2022-09-30T04:48:05.543Z,3.6
2022-09-30T04:50:05.476Z,3.7
2022-09-30T04:52:05.401Z,3.6
2022-09-30T04:54:05.349Z,3.7
2022-09-30T04:56:05.281Z,3.5
2022-09-30T04:58:05.197Z,3.6
2022-09-30T05:00:08.642Z,3.6
2022-09-30T05:02:08.660Z,3.6
2022-09-30T05:04:08.498Z,3.5
2022-09-30T05:06:30.211Z,3.7
2022-09-30T05:08:30.185Z,3.6
2022-09-30T05:10:30.096Z,3.6
2022-09-30T05:12:33.487Z,3.5
2022-09-30T05:14:33.414Z,3.6
2022-09-30T05:16:33.448Z,3.5
2022-09-30T05:18:33.280Z,3.4
2022-09-30T05:20:33.201Z,3.4
2022-09-30T05:22:33.110Z,3.4
2022-09-30T05:24:33.039Z,3.5
2022-09-30T05:28:36.412Z,3.6
2022-09-30T05:34:36.172Z,3.6
2022-09-30T05:38:36.041Z,3.5
2022-09-30T05:40:39.473Z,3.5
2022-09-30T05:42:39.380Z,3.5
2022-09-30T05:44:39.312Z,3.5
2022-09-30T05:46:39.355Z,3.5
2022-09-30T05:48:39.193Z,3.5
2022-09-30T05:50:39.116Z,3.5
2022-09-30T05:52:39.061Z,3.5
2022-09-30T05:54:42.497Z,3.6
2022-09-30T05:56:42.404Z,3.6
2022-09-30T05:58:42.350Z,3.6
2022-09-30T05:59:44.027Z,3.6
2022-09-30T06:01:44.015Z,3.6
2022-09-30T06:03:43.885Z,3.7
2022-09-30T06:05:43.801Z,3.7
2022-09-30T06:07:47.233Z,3.8
2022-09-30T06:09:47.242Z,3.8
2022-09-30T06:11:47.125Z,3.9
2022-09-30T06:13:47.035Z,3.9
2022-09-30T06:15:46.955Z,4
2022-09-30T06:17:46.880Z,4.1
2022-09-30T06:19:46.811Z,4.2
2022-09-30T06:21:50.273Z,4.3
2022-09-30T06:23:50.193Z,4.3
2022-09-30T06:25:50.121Z,4.4
2022-09-30T06:27:51.579Z,4.6
2022-09-30T06:29:51.480Z,4.7
2022-09-30T06:31:51.463Z,4.9
2022-09-30T06:33:51.343Z,5
2022-09-30T06:35:54.737Z,5.3
2022-09-30T06:37:54.683Z,5.4
2022-09-30T06:39:54.615Z,5.5
2022-09-30T06:41:54.532Z,5.6
2022-09-30T06:44:02.407Z,5.6
2022-09-30T06:47:59.881Z,5.9
2022-09-30T06:54:59.300Z,6.6
2022-09-30T06:56:59.217Z,6.7
2022-09-30T06:58:59.118Z,6.8
2022-09-30T07:00:59.105Z,6.9
2022-09-30T07:03:02.429Z,6.8
2022-09-30T07:05:02.368Z,6.7
2022-09-30T07:07:02.223Z,6.7
2022-09-30T07:09:02.186Z,6.8
2022-09-30T07:11:02.067Z,6.9
2022-09-30T07:13:01.970Z,7
2022-09-30T07:15:01.910Z,7
2022-09-30T07:17:05.330Z,7.2
2022-09-30T07:19:05.206Z,7.3
2022-09-30T07:21:05.109Z,7.3
2022-09-30T07:27:04.824Z,7.6
2022-09-30T07:29:04.720Z,7.7
2022-09-30T07:31:31.243Z,7.8
2022-09-30T07:33:08.027Z,7.9
2022-09-30T07:39:07.676Z,8.5
2022-09-30T07:41:07.568Z,8.6
2022-09-30T07:43:07.450Z,8.7
2022-09-30T07:45:10.849Z,9
2022-09-30T07:47:10.751Z,9.1
2022-09-30T07:49:10.611Z,9.2
2022-09-30T07:50:12.429Z,9.5
2022-09-30T07:54:12.069Z,9.8
2022-09-30T07:56:11.845Z,10
2022-09-30T07:58:15.087Z,10.3
2022-09-30T08:00:40.646Z,10.4
2022-09-30T08:02:14.834Z,10.6
2022-09-30T08:04:14.493Z,10.8
2022-09-30T08:08:14.101Z,11.1
2022-09-30T08:10:13.911Z,11.4
2022-09-30T08:12:17.169Z,11.5
2022-09-30T08:14:17.044Z,11.5
2022-09-30T08:16:16.861Z,11.6
2022-09-30T08:18:16.604Z,11.6
2022-09-30T08:20:21.476Z,11.7
2022-09-30T08:22:16.141Z,11.8
2022-09-30T08:24:15.901Z,11.9
2022-09-30T08:28:18.751Z,12
2022-09-30T08:34:18.040Z,12.5
2022-09-30T08:40:20.550Z,12.9
2022-09-30T08:42:36.820Z,12.9
2022-09-30T08:44:19.982Z,13
2022-09-30T08:46:35.588Z,13.2
2022-09-30T08:48:35.307Z,13.2
2022-09-30T08:50:35.034Z,13.2
2022-09-30T08:52:48.337Z,13.5
2022-09-30T08:54:40.162Z,13.5
2022-09-30T08:56:37.688Z,13.5
2022-09-30T08:58:37.273Z,13.6
2022-09-30T09:00:36.972Z,13.8
2022-09-30T09:02:36.729Z,13.8
2022-09-30T09:04:36.428Z,13.9
2022-09-30T09:14:38.206Z,14.2
2022-09-30T09:16:37.943Z,14.3
2022-09-30T09:18:37.535Z,14.5
2022-09-30T09:20:40.640Z,14.8
2022-09-30T09:22:40.317Z,14.7
2022-09-30T09:24:39.975Z,14.5
2022-09-30T09:26:39.622Z,14.6
2022-09-30T09:28:39.330Z,15.9
2022-09-30T09:30:38.974Z,17.4
2022-09-30T09:32:38.643Z,18.1
2022-09-30T09:34:41.702Z,18.8
2022-09-30T09:36:41.330Z,19.3
2022-09-30T09:38:40.955Z,19.2
2022-09-30T09:43:41.623Z,18.9
2022-09-30T09:55:42.139Z,20.1
2022-09-30T09:57:41.616Z,20.1
2022-09-30T09:59:40.953Z,19.7
2022-09-30T10:01:43.751Z,19.5
2022-09-30T10:03:42.940Z,19.4
2022-09-30T10:05:42.249Z,20
2022-09-30T10:07:41.637Z,20.9
2022-09-30T10:09:40.941Z,20.3
2022-09-30T10:11:40.195Z,19.7
2022-09-30T10:13:39.464Z,19.5
2022-09-30T10:15:42.158Z,19.5
2022-09-30T10:17:41.347Z,19.6
2022-09-30T10:19:40.587Z,19.7
2022-09-30T10:21:39.836Z,20
2022-09-30T10:23:39.074Z,20.1
2022-09-30T10:25:38.307Z,20.7
2022-09-30T10:27:37.566Z,20.5
2022-09-30T10:29:40.110Z,18.8
2022-09-30T10:31:39.377Z,18.8
2022-09-30T10:33:38.561Z,19.9
2022-09-30T10:34:39.820Z,20.4
2022-09-30T10:36:39.356Z,21.1
2022-09-30T10:38:38.216Z,21.1
2022-09-30T10:40:37.421Z,19.6
2022-09-30T10:42:39.985Z,19.2
2022-09-30T10:44:39.183Z,19.8
2022-09-30T10:46:38.514Z,20.1
2022-09-30T10:48:37.537Z,19.3
2022-09-30T10:50:36.734Z,19.5
2022-09-30T10:52:35.932Z,20.1
2022-09-30T10:54:35.118Z,20.2
2022-09-30T10:56:37.658Z,19.7
2022-09-30T10:58:36.843Z,19.8
2022-09-30T11:00:36.059Z,19.8
2022-09-30T11:02:35.210Z,19.4
2022-09-30T11:04:34.406Z,18.9
2022-09-30T11:06:33.587Z,19.1
2022-09-30T11:08:32.779Z,19
2022-09-30T11:10:35.332Z,19.4
2022-09-30T11:12:34.486Z,19.4
2022-09-30T11:14:33.696Z,19.8
2022-09-30T11:16:32.905Z,19.9
2022-09-30T11:18:32.053Z,19.8
2022-09-30T11:20:31.254Z,19.4
2022-09-30T11:22:30.439Z,19.2
2022-09-30T11:24:32.998Z,18.6
2022-09-30T11:26:32.182Z,18.6
2022-09-30T11:28:31.380Z,18.8
2022-09-30T11:33:31.005Z,18.1
2022-09-30T11:35:30.181Z,18.3
2022-09-30T11:37:32.726Z,18.1
2022-09-30T11:39:31.942Z,17.8
2022-09-30T11:45:29.641Z,17.9
2022-09-30T11:47:28.811Z,18
2022-09-30T11:49:28.046Z,18.6
2022-09-30T11:51:30.629Z,19.1
2022-09-30T11:53:29.859Z,19.3
2022-09-30T11:55:29.114Z,19.6
2022-09-30T11:57:28.311Z,19.6
2022-09-30T11:59:27.554Z,18.8
2022-09-30T12:01:26.784Z,18.7
2022-09-30T12:03:26.021Z,17.9
2022-09-30T12:05:28.591Z,16.6
2022-09-30T12:07:27.818Z,16.9
2022-09-30T12:09:27.049Z,18.4
2022-09-30T12:11:26.281Z,19.3
2022-09-30T12:13:27.097Z,19.3
2022-09-30T12:15:26.416Z,19.2
2022-09-30T12:17:25.655Z,19.3
2022-09-30T12:19:28.252Z,20.2
2022-09-30T12:21:27.502Z,20.4
2022-09-30T12:23:26.760Z,19.7
2022-09-30T12:25:53.476Z,19.6
2022-09-30T12:27:52.786Z,19.6
2022-09-30T12:29:51.953Z,19.4
2022-09-30T12:31:54.689Z,19.2
2022-09-30T12:33:53.784Z,19.6
2022-09-30T12:35:53.017Z,20
2022-09-30T12:37:52.286Z,20.7
2022-09-30T12:39:51.523Z,20.3
2022-09-30T12:41:50.743Z,19.9
2022-09-30T12:43:50.019Z,19.3
2022-09-30T12:45:52.640Z,18.6
2022-09-30T12:47:51.841Z,18.4
2022-09-30T12:49:51.082Z,19.4
2022-09-30T12:51:50.317Z,19.2
2022-09-30T12:53:49.574Z,19.9
2022-09-30T12:55:48.853Z,20.4
2022-09-30T12:57:48.127Z,20.3
2022-09-30T13:01:50.028Z,20
2022-09-30T13:03:49.233Z,20.5
2022-09-30T13:07:47.772Z,21.1
2022-09-30T13:11:46.305Z,21.4
2022-09-30T13:13:48.915Z,18.2
2022-09-30T13:15:48.286Z,17.8
2022-09-30T13:17:47.421Z,19.6
2022-09-30T13:18:48.739Z,20.2
2022-09-30T13:22:47.400Z,21.1
2022-09-30T13:24:46.649Z,22.2
2022-09-30T13:26:49.286Z,22.3
2022-09-30T13:28:48.607Z,22.2
2022-09-30T13:30:47.819Z,21
2022-09-30T13:32:47.079Z,19
2022-09-30T13:34:46.359Z,19.2
2022-09-30T13:36:45.641Z,20
2022-09-30T13:38:44.917Z,22.1
2022-09-30T13:42:46.786Z,22.3
2022-09-30T13:44:46.082Z,21.3
2022-09-30T13:46:45.362Z,20.2
2022-09-30T13:54:45.816Z,19.9
2022-09-30T13:56:45.126Z,19.3
2022-09-30T13:58:44.414Z,18
2022-09-30T14:13:44.912Z,18
2022-09-30T14:15:44.431Z,17.7
2022-09-30T14:17:43.795Z,17.1
2022-09-30T14:19:43.287Z,16.7
2022-09-30T14:21:46.134Z,16.7
2022-09-30T14:23:45.612Z,16.8
2022-09-30T14:25:45.085Z,17.4
2022-09-30T14:27:44.640Z,19.2
2022-09-30T14:29:44.041Z,19.4
2022-09-30T14:31:43.573Z,18.5
2022-09-30T14:33:43.005Z,17.6
2022-09-30T14:35:45.900Z,18
2022-09-30T14:37:45.558Z,17.9
2022-09-30T14:39:44.902Z,17.6
2022-09-30T14:41:44.436Z,17.4
2022-09-30T14:43:43.978Z,17.2
2022-09-30T14:45:43.429Z,17.5
2022-09-30T14:47:42.928Z,17.5
2022-09-30T14:49:45.852Z,17.9
2022-09-30T14:51:45.373Z,17.9
2022-09-30T14:53:44.864Z,18.1
2022-09-30T14:55:44.351Z,17.3
2022-09-30T14:57:43.916Z,16.8
2022-09-30T15:01:42.942Z,16.4
2022-09-30T15:03:45.972Z,16.3
2022-09-30T15:05:45.405Z,16.3
2022-09-30T15:08:46.421Z,16.1
2022-09-30T15:10:45.923Z,16.2
2022-09-30T15:12:45.475Z,16.4
2022-09-30T15:14:44.974Z,16.7
2022-09-30T15:16:48.006Z,17.4
2022-09-30T15:18:47.497Z,17.5
2022-09-30T15:20:47.050Z,17.5
2022-09-30T15:22:46.583Z,17.3
2022-09-30T15:24:46.111Z,17.9
2022-09-30T15:26:45.650Z,17.6
2022-09-30T15:28:45.199Z,18
2022-09-30T15:32:49.465Z,18.5
2022-09-30T15:34:47.213Z,17.6
2022-09-30T15:36:46.763Z,17.3
2022-09-30T15:38:46.284Z,17.7
2022-09-30T15:40:45.835Z,18.1
2022-09-30T15:42:45.361Z,18.7
2022-09-30T15:44:48.318Z,19.2
2022-09-30T15:46:47.862Z,19.2
2022-09-30T15:48:47.371Z,18.2
2022-09-30T15:50:46.901Z,17.8
2022-09-30T15:52:46.442Z,17.5
2022-09-30T15:54:45.945Z,17.9
2022-09-30T15:56:45.492Z,18.5
2022-09-30T15:58:48.419Z,18
2022-09-30T16:00:48.010Z,17.6
2022-09-30T16:02:47.518Z,17
2022-09-30T16:07:02.223Z,16.2
2022-09-30T16:09:01.728Z,16.1
2022-09-30T16:11:08.442Z,15.9
2022-09-30T16:15:03.729Z,15.9
2022-09-30T16:17:03.378Z,16
2022-09-30T16:19:02.829Z,16.1
2022-09-30T16:21:02.373Z,16.1
2022-09-30T16:23:01.980Z,16.1
2022-09-30T16:25:04.951Z,15.9
2022-09-30T16:27:04.515Z,15.8
2022-09-30T16:29:08.200Z,15.7
2022-09-30T16:31:03.722Z,15.6
2022-09-30T16:33:03.152Z,15.4
2022-09-30T16:35:02.736Z,15.4
2022-09-30T16:37:02.309Z,15.4
2022-09-30T16:39:05.257Z,15.2
2022-09-30T16:41:04.900Z,15.2
2022-09-30T16:43:07.129Z,15
2022-09-30T16:45:03.998Z,15
2022-09-30T16:47:03.575Z,14.9
2022-09-30T16:49:03.131Z,14.8
2022-09-30T16:51:02.736Z,14.8
2022-09-30T16:53:05.683Z,14.7
2022-09-30T16:55:05.305Z,14.7
2022-09-30T16:57:04.876Z,14.7
2022-09-30T16:58:06.400Z,14.7
2022-09-30T17:00:05.986Z,14.6
2022-09-30T17:02:05.658Z,14.5
2022-09-30T17:04:05.166Z,14.4
2022-09-30T17:06:08.171Z,14.4
2022-09-30T17:08:07.763Z,14.4
2022-09-30T17:10:07.410Z,14.4
2022-09-30T17:12:07.011Z,14.3
2022-09-30T17:14:06.617Z,14.2
2022-09-30T17:16:06.288Z,14.2
2022-09-30T17:18:05.864Z,14.2
2022-09-30T17:20:08.907Z,14.1
2022-09-30T17:22:08.502Z,14.1
2022-09-30T17:24:08.152Z,14
2022-09-30T17:26:07.771Z,14
2022-09-30T17:28:07.384Z,14
2022-09-30T17:30:07.033Z,13.8
2022-09-30T17:32:06.625Z,13.8
2022-09-30T17:34:09.674Z,13.8
2022-09-30T17:36:09.309Z,13.8
2022-09-30T17:38:08.940Z,13.6
2022-09-30T17:40:08.583Z,13.6
2022-09-30T17:42:08.212Z,13.6
2022-09-30T17:44:07.797Z,13.5
2022-09-30T17:46:07.505Z,13.5
2022-09-30T17:48:10.465Z,13.5
2022-09-30T17:50:10.128Z,13.5
2022-09-30T17:52:09.738Z,13.6
2022-09-30T17:53:11.255Z,13.6
2022-09-30T17:55:10.883Z,13.5
2022-09-30T17:57:12.068Z,13.4
2022-09-30T17:59:11.604Z,13.4
2022-09-30T18:01:14.747Z,13.2
2022-09-30T18:03:14.286Z,13.2
2022-09-30T18:05:13.914Z,13.1
2022-09-30T18:07:13.513Z,13
2022-09-30T18:11:12.815Z,12.9
2022-09-30T18:17:14.990Z,12.7
2022-09-30T18:27:13.181Z,12.6
2022-09-30T18:29:16.230Z,12.6
2022-09-30T18:31:15.926Z,12.5
2022-09-30T18:35:15.106Z,12.5
2022-09-30T18:37:14.751Z,12.4
2022-09-30T18:39:14.382Z,12.3
2022-09-30T18:41:14.062Z,12.2
2022-09-30T18:43:17.125Z,12.1
2022-09-30T18:45:16.775Z,12
2022-09-30T18:47:16.406Z,12
2022-09-30T18:48:17.899Z,11.9
2022-09-30T18:50:17.577Z,11.9
2022-09-30T18:52:17.215Z,12
2022-09-30T18:54:16.908Z,12
2022-09-30T18:56:19.968Z,12.1
2022-09-30T18:58:19.601Z,12.1
2022-09-30T19:00:19.311Z,12.1
2022-09-30T19:02:18.975Z,12
2022-09-30T19:04:18.613Z,12
2022-09-30T19:06:18.314Z,12
2022-09-30T19:08:17.968Z,11.9
2022-09-30T19:12:20.746Z,11.9
2022-09-30T19:14:20.450Z,11.8
2022-09-30T19:16:20.199Z,11.9
2022-09-30T19:18:19.810Z,11.8
2022-09-30T19:20:19.472Z,11.8
2022-09-30T19:22:19.151Z,11.9
2022-09-30T19:24:25.371Z,11.9
2022-09-30T19:26:21.939Z,11.9
2022-09-30T19:28:21.696Z,12
2022-09-30T19:30:21.294Z,12.1
2022-09-30T19:32:20.987Z,12.1
2022-09-30T19:34:30.422Z,12.1
2022-09-30T19:36:20.346Z,12.2
2022-09-30T19:38:32.475Z,12.2
2022-09-30T19:40:23.170Z,12.3
2022-09-30T19:42:22.811Z,12.3
2022-09-30T19:44:44.617Z,12.3
2022-09-30T19:46:44.298Z,12.3
2022-09-30T19:48:43.980Z,12.3
2022-09-30T19:50:47.068Z,12.3
2022-09-30T19:54:46.421Z,12.5
2022-09-30T19:56:46.108Z,12.5
2022-09-30T19:58:45.810Z,12.6
2022-09-30T20:00:45.514Z,12.6
2022-09-30T20:02:45.190Z,12.6
2022-09-30T20:04:48.268Z,12.7
2022-09-30T20:06:47.955Z,12.8
2022-09-30T20:08:47.626Z,12.7
2022-09-30T20:10:47.316Z,12.8
2022-09-30T20:12:46.997Z,13
2022-09-30T20:14:46.693Z,13
2022-09-30T20:16:46.356Z,13
2022-09-30T20:18:49.406Z,13.2
2022-09-30T20:22:48.768Z,13.3
2022-09-30T20:24:48.422Z,13.3
2022-09-30T20:26:49.124Z,13.3
2022-09-30T20:28:47.783Z,13.5
2022-09-30T20:30:47.422Z,13.5
2022-09-30T20:32:50.494Z,13.6
2022-09-30T20:36:49.828Z,13.5
2022-09-30T20:37:51.356Z,13.6
2022-09-30T20:39:51.021Z,13.6
2022-09-30T20:41:50.660Z,13.7
2022-09-30T20:43:50.320Z,13.6
2022-09-30T20:45:53.452Z,13.6
2022-09-30T20:47:53.021Z,13.6
2022-09-30T20:49:52.695Z,13.6
2022-09-30T20:51:52.356Z,13.7
2022-09-30T20:53:51.986Z,13.6
2022-09-30T20:55:51.638Z,13.6
2022-09-30T20:57:51.265Z,13.5
2022-09-30T21:01:54.001Z,13.6
2022-09-30T21:03:53.633Z,13.6
2022-09-30T21:05:53.261Z,13.6
2022-09-30T21:09:52.592Z,13.5
2022-09-30T21:11:52.182Z,13.5
2022-09-30T21:13:55.263Z,13.6
2022-09-30T21:17:54.536Z,13.5
2022-09-30T21:21:53.833Z,13.6
2022-09-30T21:23:53.520Z,13.6
2022-09-30T21:25:53.161Z,13.6
2022-09-30T21:27:56.286Z,13.6
2022-09-30T21:29:55.873Z,13.5
2022-09-30T21:31:55.531Z,13.5
2022-09-30T21:32:57.063Z,13.5
2022-09-30T21:34:56.706Z,13.5
2022-09-30T21:36:56.350Z,13.5
2022-09-30T21:42:58.748Z,13.4
2022-09-30T21:46:58.064Z,13.5
2022-09-30T21:48:57.743Z,13.6
2022-09-30T21:50:57.375Z,13.6
2022-09-30T21:52:57.026Z,13.6
2022-09-30T21:55:00.067Z,13.5
2022-09-30T21:58:59.327Z,13.6
2022-09-30T22:00:59.041Z,13.6
2022-09-30T22:02:58.633Z,13.6
2022-09-30T22:04:58.278Z,13.6
2022-09-30T22:06:57.953Z,13.7
2022-09-30T22:09:00.996Z,13.7
2022-09-30T22:11:00.631Z,13.8
2022-09-30T22:13:00.294Z,13.8
2022-09-30T22:16:59.588Z,13.5
2022-09-30T22:18:59.249Z,13.5
2022-09-30T22:20:58.902Z,13.5
2022-09-30T22:23:01.951Z,13.3
2022-09-30T22:25:01.643Z,13.4
2022-09-30T22:27:01.260Z,13.3
2022-09-30T22:28:02.884Z,13.2
2022-09-30T22:30:02.418Z,13.1
2022-09-30T22:32:02.174Z,13
2022-09-30T22:34:01.731Z,13
2022-09-30T22:36:04.796Z,12.8
2022-09-30T22:38:04.455Z,12.7
2022-09-30T22:40:04.142Z,12.6
2022-09-30T22:42:03.799Z,12.5
2022-09-30T22:44:03.480Z,12.5
2022-09-30T22:50:05.876Z,12.1
2022-09-30T22:52:05.568Z,12.1
2022-09-30T22:54:05.258Z,12
2022-09-30T22:56:04.973Z,12
2022-09-30T22:58:04.642Z,11.9
2022-09-30T23:00:04.311Z,11.9
2022-09-30T23:02:04.054Z,11.8
2022-09-30T23:04:07.143Z,11.6
2022-09-30T23:06:06.802Z,11.6
2022-09-30T23:08:06.484Z,11.5
2022-09-30T23:10:06.199Z,11.5
2022-09-30T23:12:05.865Z,11.5
2022-09-30T23:20:08.119Z,11.3
2022-09-30T23:22:07.811Z,11.3
2022-09-30T23:24:29.604Z,11.2
2022-09-30T23:26:29.325Z,11.2
2022-09-30T23:28:29.149Z,11.2
2022-09-30T23:30:32.165Z,11.1
2022-09-30T23:34:31.613Z,11
2022-09-30T23:36:31.316Z,11
2022-09-30T23:38:31.004Z,11
2022-09-30T23:42:32.005Z,11
2022-09-30T23:44:35.074Z,10.9
2022-09-30T23:46:34.872Z,10.9
2022-09-30T23:48:34.582Z,10.9
2022-09-30T23:52:33.942Z,10.9
2022-09-30T23:54:33.701Z,10.8
2022-09-30T23:56:33.420Z,10.9
2022-09-30T23:58:36.549Z,10.9
